Winona, Missouri
Current Conditions -  °F | °C
As of 9:53 PM on Monday 22 Dec 2014 (Local Time) from KUNO Reporting Station
Overcast Overcast  
Wind Chill: 45°   Ceiling: 1700
Heat Index: 49°   Visibility: 10mi
Dew Point: 46°   Wind: 8mph
Humidity: 90%   Direction: 250°WSW
Pressure: 29.59"   Gusts: NA
Location:  37.01°N, 91.32°W
Report Text: KUNO 230353Z AUTO 25007KT 10SM SCT010 BKN017 OVC025 09/08 A2959 RMK AO2 SLP021 T00940078
Loading
Personal Weather Stations






























Interactive Weather Map New forecast layout! Learn more

10-Day Weather Forecast

Advertisements
Track Severe Weather on mobile